createdAt,value
2019-05-25T00:05:37.883Z,14.10
2019-05-25T00:11:40.180Z,14.10
2019-05-25T00:17:42.436Z,14.10
2019-05-25T00:23:44.763Z,14.20
2019-05-25T00:29:47.123Z,14.20
2019-05-25T00:35:49.262Z,14.20
2019-05-25T00:41:51.779Z,14.20
2019-05-25T00:47:53.976Z,14.10
2019-05-25T00:53:56.128Z,14.10
2019-05-25T00:59:58.393Z,14.10
2019-05-25T01:06:00.755Z,14.10
2019-05-25T01:12:02.987Z,14.20
2019-05-25T01:18:05.836Z,14.20
2019-05-25T01:24:08.165Z,14.20
2019-05-25T01:30:12.460Z,14.30
2019-05-25T01:36:14.667Z,14.30
2019-05-25T01:42:16.860Z,14.30
2019-05-25T01:48:19.035Z,14.40
2019-05-25T01:54:21.355Z,14.40
2019-05-25T02:00:23.660Z,14.40
2019-05-25T02:06:25.822Z,14.40
2019-05-25T02:12:28.154Z,14.30
2019-05-25T02:18:30.541Z,14.20
2019-05-25T02:24:32.708Z,14.10
2019-05-25T02:30:38.913Z,14.00
2019-05-25T02:36:41.104Z,14.00
2019-05-25T02:42:43.439Z,14.00
2019-05-25T02:48:45.694Z,14.00
2019-05-25T02:54:47.867Z,14.10
2019-05-25T03:00:50.120Z,14.10
2019-05-25T03:06:53.093Z,14.00
2019-05-25T03:12:56.286Z,13.90
2019-05-25T03:18:58.476Z,13.90
2019-05-25T03:25:00.798Z,13.90
2019-05-25T03:31:03.094Z,14.00
2019-05-25T03:37:05.343Z,14.10
2019-05-25T03:43:07.546Z,14.10
2019-05-25T03:49:09.709Z,14.20
2019-05-25T03:55:12.166Z,14.40
2019-05-25T04:01:14.393Z,14.70
2019-05-25T04:07:16.681Z,15.50
2019-05-25T04:13:18.828Z,15.90
2019-05-25T04:19:21.127Z,16.20
2019-05-25T04:25:23.401Z,15.80
2019-05-25T04:31:25.814Z,15.40
2019-05-25T04:37:27.985Z,15.20
2019-05-25T04:43:30.235Z,14.90
2019-05-25T04:49:32.529Z,14.60
2019-05-25T04:55:34.797Z,14.40
2019-05-25T05:01:37.262Z,14.30
2019-05-25T05:07:39.513Z,14.30
2019-05-25T05:13:41.668Z,14.40
2019-05-25T05:19:43.843Z,14.70
2019-05-25T05:25:46.014Z,16.60
2019-05-25T05:31:48.293Z,18.40
2019-05-25T05:37:50.849Z,21.10
2019-05-25T05:43:54.176Z,22.90
2019-05-25T05:50:00.754Z,24.40
2019-05-25T05:56:03.240Z,26.10
2019-05-25T06:02:08.389Z,27.00
2019-05-25T06:08:11.616Z,25.90
2019-05-25T06:14:13.812Z,26.60
2019-05-25T06:20:16.284Z,27.20
2019-05-25T06:26:18.678Z,27.90
2019-05-25T06:32:21.057Z,29.50
2019-05-25T06:38:23.473Z,29.70
2019-05-25T06:44:25.759Z,29.40
2019-05-25T06:50:28.167Z,31.10
2019-05-25T06:56:30.488Z,32.20
2019-05-25T07:02:34.376Z,32.20
2019-05-25T07:08:36.608Z,32.60
2019-05-25T07:14:38.784Z,33.30
2019-05-25T07:20:41.071Z,32.40
2019-05-25T07:26:43.419Z,32.50
2019-05-25T07:32:47.012Z,31.10
2019-05-25T07:38:49.478Z,31.10
2019-05-25T07:44:52.147Z,31.90
2019-05-25T07:50:54.444Z,31.70
2019-05-25T07:56:56.679Z,30.70
2019-05-25T08:02:58.836Z,30.60
2019-05-25T08:09:01.319Z,31.80
2019-05-25T08:15:04.376Z,33.10
2019-05-25T08:21:06.695Z,32.00
2019-05-25T08:27:08.949Z,30.30
2019-05-25T08:33:11.264Z,28.80
2019-05-25T08:39:13.447Z,29.40
2019-05-25T08:45:16.154Z,30.60
2019-05-25T08:51:18.466Z,32.60
2019-05-25T08:57:20.680Z,33.30
2019-05-25T09:03:22.848Z,32.80
2019-05-25T09:09:25.171Z,32.80
2019-05-25T09:15:27.374Z,33.00
2019-05-25T09:21:29.556Z,33.10
2019-05-25T09:27:31.799Z,33.40
2019-05-25T09:33:34.167Z,32.80
2019-05-25T09:39:36.537Z,31.90
2019-05-25T09:45:38.873Z,31.90
2019-05-25T09:51:41.215Z,32.00
2019-05-25T09:57:43.440Z,32.00
2019-05-25T10:03:45.934Z,31.40
2019-05-25T10:09:48.189Z,30.30
2019-05-25T10:15:50.391Z,30.30
2019-05-25T10:21:52.540Z,30.50
2019-05-25T10:27:54.700Z,30.30
2019-05-25T10:33:57.037Z,29.30
2019-05-25T10:39:59.205Z,29.30
2019-05-25T10:46:01.391Z,29.50
2019-05-25T10:52:03.764Z,29.30
2019-05-25T10:58:06.211Z,29.20
2019-05-25T11:04:08.375Z,28.60
2019-05-25T11:10:11.127Z,28.30
2019-05-25T11:16:13.277Z,27.70
2019-05-25T11:22:15.891Z,27.10
2019-05-25T11:28:18.054Z,27.20
2019-05-25T11:34:20.295Z,27.50
2019-05-25T11:40:22.852Z,27.30
2019-05-25T11:46:25.488Z,27.20
2019-05-25T11:52:27.656Z,27.10
2019-05-25T11:58:30.096Z,26.80
2019-05-25T12:04:32.500Z,26.90
2019-05-25T12:10:34.676Z,27.10
2019-05-25T12:16:41.480Z,27.40
2019-05-25T12:22:45.028Z,27.40
2019-05-25T12:28:47.286Z,27.60
2019-05-25T12:34:49.591Z,27.40
2019-05-25T12:40:54.114Z,27.40
2019-05-25T12:46:56.686Z,27.90
2019-05-25T12:52:58.979Z,28.20
2019-05-25T12:59:02.423Z,28.30
2019-05-25T13:05:06.174Z,28.40
2019-05-25T13:11:09.767Z,28.20
2019-05-25T13:17:12.046Z,28.40
2019-05-25T13:23:14.524Z,28.10
2019-05-25T13:29:16.979Z,28.70
2019-05-25T13:35:21.294Z,28.70
2019-05-25T13:41:23.789Z,29.20
2019-05-25T13:47:25.973Z,29.00
2019-05-25T13:53:28.154Z,28.90
2019-05-25T13:59:31.584Z,29.10
2019-05-25T14:05:33.933Z,29.10
2019-05-25T14:11:36.227Z,29.10
2019-05-25T14:17:38.504Z,28.90
2019-05-25T14:23:40.912Z,28.90
2019-05-25T14:29:43.310Z,28.70
2019-05-25T14:35:45.887Z,28.60
2019-05-25T14:41:48.266Z,28.40
2019-05-25T14:47:50.699Z,28.20
2019-05-25T14:53:53.763Z,28.70
2019-05-25T14:59:58.217Z,29.10
2019-05-25T15:06:01.378Z,29.20
2019-05-25T15:12:04.011Z,29.10
2019-05-25T15:18:06.275Z,29.30
2019-05-25T15:24:08.800Z,29.40
2019-05-25T15:30:11.957Z,29.30
2019-05-25T15:36:14.307Z,28.90
2019-05-25T15:42:16.879Z,28.50
2019-05-25T15:48:19.223Z,28.10
2019-05-25T15:54:21.551Z,27.50
2019-05-25T16:00:43.400Z,27.60
2019-05-25T16:06:45.527Z,27.50
2019-05-25T16:12:47.772Z,27.50
2019-05-25T16:18:51.654Z,27.50
2019-05-25T16:24:53.924Z,27.50
2019-05-25T16:30:56.188Z,27.20
2019-05-25T16:36:58.469Z,27.00
2019-05-25T16:43:00.996Z,26.80
2019-05-25T16:49:03.831Z,26.50
2019-05-25T16:55:06.355Z,26.10
2019-05-25T17:01:08.596Z,25.80
2019-05-25T17:07:10.769Z,25.70
2019-05-25T17:13:32.432Z,25.50
2019-05-25T17:19:34.665Z,25.40
2019-05-25T17:25:36.769Z,25.40
2019-05-25T17:31:39.114Z,25.30
2019-05-25T17:37:41.308Z,25.10
2019-05-25T17:43:43.539Z,25.00
2019-05-25T17:49:46.039Z,24.80
2019-05-25T17:55:48.198Z,24.50
2019-05-25T18:01:51.262Z,24.10
2019-05-25T18:07:53.722Z,23.70
2019-05-25T18:13:55.903Z,23.20
2019-05-25T18:19:58.188Z,22.70
2019-05-25T18:26:00.361Z,22.30
2019-05-25T18:32:02.660Z,21.80
2019-05-25T18:38:05.484Z,21.40
2019-05-25T18:44:08.770Z,20.80
2019-05-25T18:50:12.670Z,20.40
2019-05-25T18:56:15.030Z,20.20
2019-05-25T19:02:17.620Z,19.90
2019-05-25T19:08:19.913Z,19.80
2019-05-25T19:14:22.072Z,19.60
2019-05-25T19:20:24.392Z,19.50
2019-05-25T19:26:26.616Z,19.40
2019-05-25T19:32:28.947Z,19.30
2019-05-25T19:38:31.424Z,19.10
2019-05-25T19:44:33.820Z,19.00
2019-05-25T19:50:36.143Z,19.00
2019-05-25T19:56:51.699Z,19.00
2019-05-25T20:02:54.135Z,19.00
2019-05-25T20:09:01.381Z,19.10
2019-05-25T20:15:05.505Z,19.20
2019-05-25T20:21:08.280Z,19.30
2019-05-25T20:27:10.666Z,19.40
2019-05-25T20:33:23.146Z,19.50
2019-05-25T20:39:22.078Z,19.30
2019-05-25T20:45:24.798Z,19.20
2019-05-25T20:51:28.172Z,19.00
2019-05-25T20:57:43.960Z,18.90
2019-05-25T21:03:46.659Z,18.80
2019-05-25T21:09:51.551Z,18.70
2019-05-25T21:15:54.444Z,18.70
2019-05-25T21:22:03.611Z,18.60
2019-05-25T21:28:10.280Z,18.50
2019-05-25T21:34:12.785Z,18.30
2019-05-25T21:40:16.083Z,18.20
2019-05-25T21:46:18.354Z,18.20
2019-05-25T21:52:20.665Z,18.20
2019-05-25T21:58:22.956Z,18.10
2019-05-25T22:04:25.432Z,18.00
2019-05-25T22:10:27.753Z,17.90
2019-05-25T22:16:29.985Z,17.70
2019-05-25T22:22:32.339Z,17.80
2019-05-25T22:28:44.281Z,17.60
2019-05-25T22:34:38.883Z,17.70
2019-05-25T22:40:42.029Z,17.70
2019-05-25T22:46:45.364Z,17.60
2019-05-25T22:52:47.730Z,17.60
2019-05-25T22:58:50.259Z,17.60
2019-05-25T23:04:52.765Z,17.50
2019-05-25T23:10:55.214Z,17.50
2019-05-25T23:16:57.401Z,17.30
2019-05-25T23:22:59.730Z,17.20
2019-05-25T23:29:02.062Z,17.10
2019-05-25T23:35:04.601Z,17.10
2019-05-25T23:41:06.912Z,17.10
2019-05-25T23:47:10.231Z,17.10
2019-05-25T23:53:12.598Z,17.10
2019-05-25T23:59:15.077Z,17.10
